ADDS TAF Data INFO
IDs: Format: Raw Decoded Include METARs

Data at: 1026 UTC 20 Jul 2018

Region: TOP
Region: TOP
KATL 200955Z 2010/2112 07006KT P6SM SCT005 BKN008
  TEMPO 2010/2013 BKN005
  FM201400 09006KT P6SM BKN015
  FM201600 09007KT P6SM BKN025
  FM201800 10006KT P6SM VCSH BKN045
  FM202000 09006KT P6SM VCSH SCT045
  FM210000 13005KT P6SM FEW040


KBOS 200814Z 2008/2112 23006KT P6SM SKC
  FM201500 12012KT P6SM FEW045
  FM210000 14010KT P6SM SKC
  FM210600 17006KT P6SM SKC


KBWI 200910Z 2009/2112 VRB03KT P6SM FEW250
  FM201500 12006KT P6SM FEW250
  FM202300 13007KT P6SM SCT050
  FM210100 13007KT P6SM SCT200
  FM210800 09006KT P6SM BKN200


KCLE 200901Z 2009/2112 16010KT P6SM FEW250
  FM201300 18010KT P6SM BKN120
  FM201800 18015G25KT P6SM BKN070
  PROB30 2018/2021 3SM TSRA OVC025CB
  FM210200 18012KT P6SM VCSH BKN035


KCLT 200533Z 2006/2112 10004KT P6SM SCT070 SCT120 BKN250
  TEMPO 2011/2013 SCT015
  FM201300 07008KT P6SM BKN070
  FM211000 01003KT P6SM BKN250


KCVG 200836Z 2009/2112 16008KT P6SM VCTS OVC060CB
  TEMPO 2009/2012 4SM -TSRA OVC040CB
  FM201200 17010KT P6SM -SHRA VCTS OVC040CB
  FM201500 18012KT P6SM VCSH OVC025
  FM201700 18012G18KT P6SM BKN035
  FM202100 19012G18KT P6SM -SHRA VCTS BKN040CB
  FM210200 15006KT P6SM VCSH FEW025 OVC040
  FM210800 20008KT P6SM VCSH BKN025


KDCA 200909Z 2009/2112 VRB03KT P6SM SCT060
  FM201700 13007KT P6SM SCT250
  FM210800 09006KT P6SM BKN150
  FM211000 08006KT P6SM BKN025


KDEN 200804Z 2008/2112 25006KT P6SM FEW220
  FM201400 34008KT P6SM FEW220
  FM201800 03010KT P6SM FEW220
  FM202200 08010KT P6SM SCT110 BKN220
  FM210300 18011KT P6SM FEW220
  FM210900 24008KT P6SM FEW220


KDFW 200905Z 2009/2112 20009KT P6SM BKN300
  FM201400 23012KT P6SM SCT300
  FM202000 19011KT P6SM SCT300


KDTW 200900Z 2009/2112 10005KT P6SM FEW120 BKN250
  FM201400 14010KT P6SM BKN120 BKN250
  FM201700 16014G22KT P6SM VCTS SCT060CB BKN080 BKN250
  TEMPO 2022/2102 2SM TSRA BKN030CB OVC050
  FM210200 17010KT 6SM SHRA BKN040 OVC060
  FM210600 16008KT 6SM -SHRA BKN018 OVC035


KEWR 200834Z 2009/2112 VRB04KT P6SM SKC
  FM201500 14008KT P6SM FEW250
  FM210000 15005KT P6SM SCT250
  FM210700 09005KT P6SM BKN250


KFLL 200855Z 2009/2112 22005KT P6SM FEW030 SCT250
  FM201600 17008KT P6SM SCT030
  FM202000 15012KT P6SM VCTS SCT035CB
  FM210000 22003KT P6SM BKN200


KIAD 200908Z 2009/2112 00000KT P6SM FEW060
  FM201300 17004KT P6SM FEW250
  FM201800 14008KT P6SM SCT060
  FM210500 12006KT P6SM BKN200
  FM210900 10005KT P6SM BKN025


KIAH 200905Z 2009/2112 20007KT P6SM SKC
  FM201200 22005KT P6SM BKN012
  FM201400 23007KT P6SM SCT025
  FM201800 22008KT P6SM FEW050
  FM202300 18007G12KT P6SM SKC
  FM210200 21005KT P6SM SKC


KJFK 200834Z 2009/2112 22005KT P6SM SKC
  FM201400 16007KT P6SM SKC
  FM201800 16012KT P6SM FEW250
  FM210000 16008KT P6SM SCT250
  FM210700 11007KT P6SM BKN250


KLAS 200847Z 2009/2112 VRB05KT P6SM BKN200
  FM202100 15006KT P6SM SCT110 SCT200
  FM210300 19008KT P6SM FEW110 SCT200


KLAX 200902Z 2009/2112 25005KT P6SM FEW010 SCT250
  FM201100 VRB03KT P6SM OVC008
  FM201700 24008KT P6SM SCT012
  FM202000 26012KT P6SM SCT150
  FM210500 26006KT P6SM SCT200
  FM210800 25008KT P6SM FEW010


KLGA 200834Z 2009/2112 22005KT P6SM SKC
  FM201500 13006KT P6SM SKC
  FM201900 16011KT P6SM FEW250
  FM210000 16007KT P6SM SCT250
  FM210700 11006KT P6SM BKN250


KMCO 200902Z 2009/2112 16005KT P6SM BKN250
  FM201400 21007KT P6SM SCT030 SCT080 BKN250
  FM201700 22011KT P6SM VCTS SCT050CB BKN090
  TEMPO 2017/2020 3SM TSRA BKN035CB
  FM202200 25008KT P6SM VCSH SCT070 BKN200
  FM210000 21004KT P6SM FEW120 BKN250


KMDW 201006Z 2010/2112 19013G20KT P6SM VCSH SCT035 BKN060
  FM201600 21012G18KT 6SM SHRA VCTS BKN025 OVC035CB
  FM201900 24014G20KT 6SM SHRA BKN020
  FM210000 28010KT P6SM VCSH SCT008 BKN015


KMEM 200856Z 2009/2112 20005KT P6SM SCT040 BKN250
  FM201500 19009KT P6SM SCT040 SCT250
  FM202000 21011KT P6SM VCSH FEW040 BKN250
  FM210100 19009KT P6SM VCTS SCT045CB BKN150
  TEMPO 2103/2105 VRB15G30KT 3SM TSRA SCT010 OVC035CB
  FM210500 16005KT P6SM VCTS BKN045CB OVC150


KMIA 200855Z 2009/2112 00000KT P6SM FEW003 FEW035 BKN250
  FM201600 17007KT P6SM SCT030
  FM202000 15010KT P6SM VCTS SCT035CB
  FM210000 22003KT P6SM BKN200


KMSP 200857Z 2009/2112 01010KT 4SM BR OVC005
  FM201400 34014G21KT 4SM -SHRA BR OVC007
  FM201800 33012G21KT P6SM VCTS OVC025CB
  FM202200 33011KT P6SM SCT025 OVC050


KORD 201006Z 2010/2112 19013G20KT P6SM VCSH SCT035 BKN060
  FM201600 21012G18KT 6SM SHRA VCTS BKN025 OVC035CB
  FM201900 24014G20KT 6SM SHRA BKN020
  FM210000 28010KT P6SM VCSH SCT008 BKN015


KPDX 200850Z 2009/2106 34005KT P6SM SKC
  FM201200 33004KT P6SM BKN025 OVC035
  FM201700 33005KT P6SM BKN035
  FM201900 34006KT P6SM SCT040


KPHL 200858Z 2009/2112 VRB03KT P6SM SCT250
  FM201500 14006KT P6SM FEW050
  FM210300 11006KT P6SM BKN250
  FM211000 08006KT P6SM BKN120


KPHX 200835Z 2009/2112 31010KT P6SM FEW080 SCT140 OVC250
  FM201000 27005KT P6SM FEW150 BKN250
  FM201900 27011G17KT P6SM FEW100 SCT250
  FM210300 25009KT P6SM FEW100 BKN250


KPIT 200855Z 2009/2112 13005KT P6SM SCT070
  FM201600 16010KT P6SM BKN070
  FM202200 15010KT P6SM VCTS BKN050CB
  FM210000 14010KT P6SM VCSH BKN060


KSAN 200956Z 2010/2112 29004KT P6SM BKN012
  FM201600 28006KT P6SM SCT015
  FM201900 28010KT P6SM SKC
  FM210200 VRB04KT P6SM SCT015
  FM210800 VRB04KT P6SM BKN015


KSEA 200903Z 2009/2112 24006KT P6SM BKN025 OVC040
  FM201900 26006KT P6SM SCT035
  FM210000 33006KT P6SM SCT040 SCT250


KSFO 200900Z 2009/2112 29009KT P6SM FEW004
  FM201100 29004KT P6SM BKN010
  FM201600 04006KT P6SM FEW010 SCT180
  FM202100 27015KT P6SM FEW010 SCT180
  FM210300 29010KT P6SM FEW010 SCT180
  FM210900 27006KT P6SM BKN010


KSLC 200910Z 2009/2112 15007KT P6SM BKN200
  FM202000 33007KT P6SM SCT080 SCT150
  FM210200 15010KT P6SM VCSH SCT080 BKN150
  FM210900 15008KT P6SM SCT080 BKN150


KSTL 200854Z 2009/2112 22006KT P6SM FEW080
  FM201600 26009KT P6SM FEW250
  FM202000 29011G20KT P6SM FEW250
  FM210100 31006KT P6SM FEW250


KTPA 200903Z 2009/2112 20004KT P6SM SCT025 BKN200
  FM201300 21009KT P6SM VCTS SCT025CB OVC090
  FM210200 22006KT P6SM SCT025 BKN060
  FM210400 VRB05KT P6SM BKN045